sensor_id;sensor_type;location;lat;lon;timestamp;P1;durP1;ratioP1;P2;durP2;ratioP2
60098;SDS011;62818;49.394;8.686;2024-02-14T00:04:58;7.47;;;2.72;;
60098;SDS011;62818;49.394;8.686;2024-02-14T00:09:59;4.30;;;2.72;;
60098;SDS011;62818;49.394;8.686;2024-02-14T00:14:59;4.45;;;2.65;;
60098;SDS011;62818;49.394;8.686;2024-02-14T00:20:00;3.43;;;2.90;;
60098;SDS011;62818;49.394;8.686;2024-02-14T00:25:03;2.38;;;2.17;;
60098;SDS011;62818;49.394;8.686;2024-02-14T00:30:05;3.42;;;2.60;;
60098;SDS011;62818;49.394;8.686;2024-02-14T00:35:06;4.95;;;2.60;;
60098;SDS011;62818;49.394;8.686;2024-02-14T00:40:07;5.07;;;2.45;;
60098;SDS011;62818;49.394;8.686;2024-02-14T00:45:08;5.95;;;2.85;;
60098;SDS011;62818;49.394;8.686;2024-02-14T00:50:09;3.42;;;2.60;;
60098;SDS011;62818;49.394;8.686;2024-02-14T00:55:10;5.45;;;2.67;;
60098;SDS011;62818;49.394;8.686;2024-02-14T01:00:11;4.10;;;2.67;;
60098;SDS011;62818;49.394;8.686;2024-02-14T01:05:11;3.17;;;2.42;;
60098;SDS011;62818;49.394;8.686;2024-02-14T01:10:12;2.70;;;2.30;;
60098;SDS011;62818;49.394;8.686;2024-02-14T01:15:13;3.83;;;2.72;;
60098;SDS011;62818;49.394;8.686;2024-02-14T01:20:13;5.33;;;2.73;;
60098;SDS011;62818;49.394;8.686;2024-02-14T01:25:13;4.60;;;2.80;;
60098;SDS011;62818;49.394;8.686;2024-02-14T01:30:14;5.40;;;3.17;;
60098;SDS011;62818;49.394;8.686;2024-02-14T01:35:16;7.03;;;3.53;;
60098;SDS011;62818;49.394;8.686;2024-02-14T01:40:16;9.43;;;3.77;;
60098;SDS011;62818;49.394;8.686;2024-02-14T01:45:17;7.70;;;3.50;;
60098;SDS011;62818;49.394;8.686;2024-02-14T01:50:18;9.75;;;4.63;;
60098;SDS011;62818;49.394;8.686;2024-02-14T01:55:26;7.13;;;3.63;;
60098;SDS011;62818;49.394;8.686;2024-02-14T02:00:27;4.43;;;3.28;;
60098;SDS011;62818;49.394;8.686;2024-02-14T02:05:28;8.63;;;3.83;;
60098;SDS011;62818;49.394;8.686;2024-02-14T02:10:29;8.13;;;4.00;;
60098;SDS011;62818;49.394;8.686;2024-02-14T02:15:29;10.30;;;3.72;;
60098;SDS011;62818;49.394;8.686;2024-02-14T02:20:30;7.55;;;4.45;;
60098;SDS011;62818;49.394;8.686;2024-02-14T02:25:32;4.30;;;3.58;;
60098;SDS011;62818;49.394;8.686;2024-02-14T02:30:32;7.67;;;3.87;;
60098;SDS011;62818;49.394;8.686;2024-02-14T02:35:37;8.57;;;4.15;;
60098;SDS011;62818;49.394;8.686;2024-02-14T02:40:37;6.00;;;3.20;;
60098;SDS011;62818;49.394;8.686;2024-02-14T02:45:37;5.13;;;3.07;;
60098;SDS011;62818;49.394;8.686;2024-02-14T02:50:39;3.55;;;2.88;;
60098;SDS011;62818;49.394;8.686;2024-02-14T02:55:39;6.10;;;3.17;;
60098;SDS011;62818;49.394;8.686;2024-02-14T03:00:40;8.17;;;3.10;;
60098;SDS011;62818;49.394;8.686;2024-02-14T03:05:40;6.17;;;3.23;;
60098;SDS011;62818;49.394;8.686;2024-02-14T03:10:41;8.40;;;3.23;;
60098;SDS011;62818;49.394;8.686;2024-02-14T03:20:43;5.10;;;2.97;;
60098;SDS011;62818;49.394;8.686;2024-02-14T03:25:44;4.50;;;2.47;;
60098;SDS011;62818;49.394;8.686;2024-02-14T03:30:45;5.00;;;2.85;;
60098;SDS011;62818;49.394;8.686;2024-02-14T03:35:45;5.97;;;2.65;;
60098;SDS011;62818;49.394;8.686;2024-02-14T03:40:46;5.05;;;3.40;;
60098;SDS011;62818;49.394;8.686;2024-02-14T03:45:47;6.17;;;2.83;;
60098;SDS011;62818;49.394;8.686;2024-02-14T03:50:47;4.05;;;2.97;;
60098;SDS011;62818;49.394;8.686;2024-02-14T03:55:48;3.75;;;2.97;;
60098;SDS011;62818;49.394;8.686;2024-02-14T04:00:52;6.70;;;3.10;;
60098;SDS011;62818;49.394;8.686;2024-02-14T04:05:52;5.70;;;2.90;;
60098;SDS011;62818;49.394;8.686;2024-02-14T04:10:53;6.97;;;3.30;;
60098;SDS011;62818;49.394;8.686;2024-02-14T04:15:56;4.55;;;3.10;;
60098;SDS011;62818;49.394;8.686;2024-02-14T04:20:57;6.10;;;3.10;;
60098;SDS011;62818;49.394;8.686;2024-02-14T04:26:01;5.15;;;3.22;;
60098;SDS011;62818;49.394;8.686;2024-02-14T04:31:01;6.30;;;2.97;;
60098;SDS011;62818;49.394;8.686;2024-02-14T04:36:02;4.50;;;3.10;;
60098;SDS011;62818;49.394;8.686;2024-02-14T04:41:03;5.55;;;3.53;;
60098;SDS011;62818;49.394;8.686;2024-02-14T04:46:04;10.35;;;3.15;;
60098;SDS011;62818;49.394;8.686;2024-02-14T04:51:07;8.18;;;3.25;;
60098;SDS011;62818;49.394;8.686;2024-02-14T04:56:07;9.23;;;3.17;;
60098;SDS011;62818;49.394;8.686;2024-02-14T05:01:08;5.88;;;2.95;;
60098;SDS011;62818;49.394;8.686;2024-02-14T05:11:09;6.30;;;2.90;;
60098;SDS011;62818;49.394;8.686;2024-02-14T05:16:09;5.33;;;3.07;;
60098;SDS011;62818;49.394;8.686;2024-02-14T05:21:10;3.67;;;2.35;;
60098;SDS011;62818;49.394;8.686;2024-02-14T05:26:11;7.30;;;3.28;;
60098;SDS011;62818;49.394;8.686;2024-02-14T05:31:11;5.28;;;3.10;;
60098;SDS011;62818;49.394;8.686;2024-02-14T05:36:12;5.35;;;3.00;;
60098;SDS011;62818;49.394;8.686;2024-02-14T05:41:12;5.70;;;2.88;;
60098;SDS011;62818;49.394;8.686;2024-02-14T05:46:13;5.57;;;3.13;;
60098;SDS011;62818;49.394;8.686;2024-02-14T05:51:13;6.37;;;3.07;;
60098;SDS011;62818;49.394;8.686;2024-02-14T05:56:14;5.00;;;2.88;;
60098;SDS011;62818;49.394;8.686;2024-02-14T06:01:14;6.40;;;2.80;;
60098;SDS011;62818;49.394;8.686;2024-02-14T06:06:16;6.40;;;3.08;;
60098;SDS011;62818;49.394;8.686;2024-02-14T06:11:17;6.88;;;2.80;;
60098;SDS011;62818;49.394;8.686;2024-02-14T06:16:20;6.22;;;3.38;;
60098;SDS011;62818;49.394;8.686;2024-02-14T06:21:21;4.80;;;2.78;;
60098;SDS011;62818;49.394;8.686;2024-02-14T06:26:21;8.00;;;3.25;;
60098;SDS011;62818;49.394;8.686;2024-02-14T06:31:22;8.15;;;3.03;;
60098;SDS011;62818;49.394;8.686;2024-02-14T06:36:23;5.45;;;2.72;;
60098;SDS011;62818;49.394;8.686;2024-02-14T06:41:24;8.20;;;3.05;;
60098;SDS011;62818;49.394;8.686;2024-02-14T06:51:26;5.15;;;2.88;;
60098;SDS011;62818;49.394;8.686;2024-02-14T06:56:29;5.97;;;3.03;;
60098;SDS011;62818;49.394;8.686;2024-02-14T07:01:30;10.02;;;3.10;;
60098;SDS011;62818;49.394;8.686;2024-02-14T07:06:31;6.10;;;2.90;;
60098;SDS011;62818;49.394;8.686;2024-02-14T07:11:31;6.70;;;2.92;;
60098;SDS011;62818;49.394;8.686;2024-02-14T07:16:32;6.20;;;2.90;;
60098;SDS011;62818;49.394;8.686;2024-02-14T07:21:32;6.07;;;3.40;;
60098;SDS011;62818;49.394;8.686;2024-02-14T07:26:33;7.07;;;2.83;;
60098;SDS011;62818;49.394;8.686;2024-02-14T07:31:33;5.70;;;2.92;;
60098;SDS011;62818;49.394;8.686;2024-02-14T07:36:34;6.40;;;3.00;;
60098;SDS011;62818;49.394;8.686;2024-02-14T07:41:35;9.90;;;3.58;;
60098;SDS011;62818;49.394;8.686;2024-02-14T07:46:35;5.63;;;2.70;;
60098;SDS011;62818;49.394;8.686;2024-02-14T07:51:36;7.80;;;3.15;;
60098;SDS011;62818;49.394;8.686;2024-02-14T07:56:37;6.22;;;2.97;;
60098;SDS011;62818;49.394;8.686;2024-02-14T08:06:46;3.65;;;2.55;;
60098;SDS011;62818;49.394;8.686;2024-02-14T08:11:50;9.02;;;3.28;;
60098;SDS011;62818;49.394;8.686;2024-02-14T08:16:53;7.03;;;2.60;;
60098;SDS011;62818;49.394;8.686;2024-02-14T08:21:53;8.80;;;3.55;;
60098;SDS011;62818;49.394;8.686;2024-02-14T08:26:57;5.13;;;3.10;;
60098;SDS011;62818;49.394;8.686;2024-02-14T08:31:58;4.37;;;2.83;;
60098;SDS011;62818;49.394;8.686;2024-02-14T08:36:58;5.47;;;3.00;;
60098;SDS011;62818;49.394;8.686;2024-02-14T08:41:59;7.10;;;3.03;;
60098;SDS011;62818;49.394;8.686;2024-02-14T08:47:03;6.55;;;2.78;;
60098;SDS011;62818;49.394;8.686;2024-02-14T08:52:04;8.63;;;2.90;;
60098;SDS011;62818;49.394;8.686;2024-02-14T08:57:06;4.53;;;2.88;;
60098;SDS011;62818;49.394;8.686;2024-02-14T09:02:07;8.73;;;3.08;;
60098;SDS011;62818;49.394;8.686;2024-02-14T09:07:07;3.63;;;2.90;;
60098;SDS011;62818;49.394;8.686;2024-02-14T09:12:08;6.75;;;3.38;;
60098;SDS011;62818;49.394;8.686;2024-02-14T09:17:08;6.55;;;3.05;;
60098;SDS011;62818;49.394;8.686;2024-02-14T09:22:10;8.32;;;3.00;;
60098;SDS011;62818;49.394;8.686;2024-02-14T09:27:10;5.55;;;3.15;;
60098;SDS011;62818;49.394;8.686;2024-02-14T09:37:11;8.60;;;3.10;;
60098;SDS011;62818;49.394;8.686;2024-02-14T09:42:13;19.13;;;3.75;;
60098;SDS011;62818;49.394;8.686;2024-02-14T09:47:16;5.55;;;3.67;;
60098;SDS011;62818;49.394;8.686;2024-02-14T10:02:21;6.32;;;2.83;;
60098;SDS011;62818;49.394;8.686;2024-02-14T10:07:22;8.25;;;2.75;;
60098;SDS011;62818;49.394;8.686;2024-02-14T10:17:23;5.57;;;3.00;;
60098;SDS011;62818;49.394;8.686;2024-02-14T10:22:24;12.23;;;5.25;;
60098;SDS011;62818;49.394;8.686;2024-02-14T10:27:32;8.10;;;3.38;;
60098;SDS011;62818;49.394;8.686;2024-02-14T10:37:33;7.17;;;3.33;;
60098;SDS011;62818;49.394;8.686;2024-02-14T10:42:33;6.70;;;3.28;;
60098;SDS011;62818;49.394;8.686;2024-02-14T10:47:35;4.15;;;2.95;;
60098;SDS011;62818;49.394;8.686;2024-02-14T10:52:36;9.02;;;3.22;;
60098;SDS011;62818;49.394;8.686;2024-02-14T10:57:41;10.02;;;3.58;;
60098;SDS011;62818;49.394;8.686;2024-02-14T11:02:45;7.35;;;3.30;;
60098;SDS011;62818;49.394;8.686;2024-02-14T11:07:47;8.52;;;3.40;;
60098;SDS011;62818;49.394;8.686;2024-02-14T11:12:50;10.50;;;4.85;;
60098;SDS011;62818;49.394;8.686;2024-02-14T11:17:51;12.45;;;5.85;;
60098;SDS011;62818;49.394;8.686;2024-02-14T11:22:55;7.60;;;3.50;;
60098;SDS011;62818;49.394;8.686;2024-02-14T11:27:59;8.07;;;3.40;;
60098;SDS011;62818;49.394;8.686;2024-02-14T11:33:25;7.57;;;3.92;;
60098;SDS011;62818;49.394;8.686;2024-02-14T11:43:27;7.50;;;3.00;;
60098;SDS011;62818;49.394;8.686;2024-02-14T11:53:28;7.40;;;3.10;;
60098;SDS011;62818;49.394;8.686;2024-02-14T12:03:31;9.63;;;3.42;;
60098;SDS011;62818;49.394;8.686;2024-02-14T12:13:34;5.10;;;2.97;;
60098;SDS011;62818;49.394;8.686;2024-02-14T12:18:37;6.55;;;3.50;;
60098;SDS011;62818;49.394;8.686;2024-02-14T12:23:40;9.43;;;3.47;;
60098;SDS011;62818;49.394;8.686;2024-02-14T12:33:40;7.23;;;3.50;;
60098;SDS011;62818;49.394;8.686;2024-02-14T12:38:41;4.43;;;2.60;;
60098;SDS011;62818;49.394;8.686;2024-02-14T12:48:41;4.73;;;2.60;;
60098;SDS011;62818;49.394;8.686;2024-02-14T12:58:42;4.50;;;2.50;;
60098;SDS011;62818;49.394;8.686;2024-02-14T13:03:44;4.25;;;2.58;;
60098;SDS011;62818;49.394;8.686;2024-02-14T13:13:45;6.03;;;2.88;;
60098;SDS011;62818;49.394;8.686;2024-02-14T13:23:46;3.63;;;2.55;;
60098;SDS011;62818;49.394;8.686;2024-02-14T13:33:48;3.67;;;2.40;;
60098;SDS011;62818;49.394;8.686;2024-02-14T13:43:49;4.35;;;2.28;;
60098;SDS011;62818;49.394;8.686;2024-02-14T13:53:50;4.00;;;2.50;;
60098;SDS011;62818;49.394;8.686;2024-02-14T14:03:51;6.77;;;2.87;;
60098;SDS011;62818;49.394;8.686;2024-02-14T14:08:54;6.50;;;2.50;;
60098;SDS011;62818;49.394;8.686;2024-02-14T14:18:55;3.90;;;2.03;;
60098;SDS011;62818;49.394;8.686;2024-02-14T14:23:58;1.77;;;1.40;;
60098;SDS011;62818;49.394;8.686;2024-02-14T14:33:59;1.83;;;1.60;;
60098;SDS011;62818;49.394;8.686;2024-02-14T14:44:00;4.88;;;1.77;;
60098;SDS011;62818;49.394;8.686;2024-02-14T14:54:01;8.10;;;2.08;;
60098;SDS011;62818;49.394;8.686;2024-02-14T15:04:03;2.97;;;1.65;;
60098;SDS011;62818;49.394;8.686;2024-02-14T15:09:05;2.47;;;1.67;;
60098;SDS011;62818;49.394;8.686;2024-02-14T15:19:07;4.83;;;2.37;;
60098;SDS011;62818;49.394;8.686;2024-02-14T15:24:08;4.78;;;1.95;;
60098;SDS011;62818;49.394;8.686;2024-02-14T15:34:28;3.08;;;1.52;;
60098;SDS011;62818;49.394;8.686;2024-02-14T15:39:30;3.45;;;1.83;;
60098;SDS011;62818;49.394;8.686;2024-02-14T15:49:31;2.53;;;2.03;;
60098;SDS011;62818;49.394;8.686;2024-02-14T15:54:33;4.47;;;2.25;;
60098;SDS011;62818;49.394;8.686;2024-02-14T15:59:34;2.88;;;2.00;;
60098;SDS011;62818;49.394;8.686;2024-02-14T16:09:36;2.53;;;1.73;;
60098;SDS011;62818;49.394;8.686;2024-02-14T16:19:38;3.00;;;2.17;;
60098;SDS011;62818;49.394;8.686;2024-02-14T16:29:39;3.33;;;2.17;;
60098;SDS011;62818;49.394;8.686;2024-02-14T16:34:40;4.28;;;2.35;;
60098;SDS011;62818;49.394;8.686;2024-02-14T16:39:43;6.93;;;3.80;;
60098;SDS011;62818;49.394;8.686;2024-02-14T16:44:44;4.00;;;2.50;;
60098;SDS011;62818;49.394;8.686;2024-02-14T16:54:46;3.67;;;2.17;;
60098;SDS011;62818;49.394;8.686;2024-02-14T17:04:47;7.70;;;2.17;;
60098;SDS011;62818;49.394;8.686;2024-02-14T17:09:49;2.13;;;1.70;;
60098;SDS011;62818;49.394;8.686;2024-02-14T17:19:53;3.22;;;2.17;;
60098;SDS011;62818;49.394;8.686;2024-02-14T17:29:57;2.55;;;1.90;;
60098;SDS011;62818;49.394;8.686;2024-02-14T17:39:58;2.20;;;1.80;;
60098;SDS011;62818;49.394;8.686;2024-02-14T17:44:59;2.40;;;1.90;;
60098;SDS011;62818;49.394;8.686;2024-02-14T17:55:02;5.28;;;2.13;;
60098;SDS011;62818;49.394;8.686;2024-02-14T18:00:07;2.53;;;1.90;;
60098;SDS011;62818;49.394;8.686;2024-02-14T18:05:09;4.05;;;2.17;;
60098;SDS011;62818;49.394;8.686;2024-02-14T18:15:11;4.43;;;2.22;;
60098;SDS011;62818;49.394;8.686;2024-02-14T18:25:12;3.45;;;2.03;;
60098;SDS011;62818;49.394;8.686;2024-02-14T18:35:16;3.33;;;1.93;;
60098;SDS011;62818;49.394;8.686;2024-02-14T18:40:17;4.30;;;2.20;;
60098;SDS011;62818;49.394;8.686;2024-02-14T18:45:18;2.22;;;1.88;;
60098;SDS011;62818;49.394;8.686;2024-02-14T18:55:23;4.85;;;2.13;;
60098;SDS011;62818;49.394;8.686;2024-02-14T19:00:24;1.80;;;1.70;;
60098;SDS011;62818;49.394;8.686;2024-02-14T19:05:25;2.13;;;1.80;;
60098;SDS011;62818;49.394;8.686;2024-02-14T19:15:26;2.83;;;1.97;;
60098;SDS011;62818;49.394;8.686;2024-02-14T19:20:27;3.45;;;2.15;;
60098;SDS011;62818;49.394;8.686;2024-02-14T19:25:30;3.90;;;1.85;;
60098;SDS011;62818;49.394;8.686;2024-02-14T19:35:31;2.97;;;1.58;;
60098;SDS011;62818;49.394;8.686;2024-02-14T19:40:31;3.47;;;2.17;;
60098;SDS011;62818;49.394;8.686;2024-02-14T19:45:33;6.78;;;2.72;;
60098;SDS011;62818;49.394;8.686;2024-02-14T19:50:36;4.40;;;2.40;;
60098;SDS011;62818;49.394;8.686;2024-02-14T20:00:37;5.95;;;2.40;;
60098;SDS011;62818;49.394;8.686;2024-02-14T20:05:38;3.85;;;2.30;;
60098;SDS011;62818;49.394;8.686;2024-02-14T20:10:39;1.92;;;1.83;;
60098;SDS011;62818;49.394;8.686;2024-02-14T20:20:40;3.05;;;1.83;;
60098;SDS011;62818;49.394;8.686;2024-02-14T20:30:41;4.80;;;2.20;;
60098;SDS011;62818;49.394;8.686;2024-02-14T20:40:42;2.13;;;1.73;;
60098;SDS011;62818;49.394;8.686;2024-02-14T20:50:43;3.90;;;2.20;;
60098;SDS011;62818;49.394;8.686;2024-02-14T21:00:44;4.15;;;2.75;;
60098;SDS011;62818;49.394;8.686;2024-02-14T21:05:47;6.57;;;2.80;;
60098;SDS011;62818;49.394;8.686;2024-02-14T21:15:49;3.30;;;2.22;;
60098;SDS011;62818;49.394;8.686;2024-02-14T21:20:50;3.17;;;2.10;;
60098;SDS011;62818;49.394;8.686;2024-02-14T21:25:50;4.18;;;2.22;;
60098;SDS011;62818;49.394;8.686;2024-02-14T21:35:51;6.97;;;2.30;;
60098;SDS011;62818;49.394;8.686;2024-02-14T21:40:56;3.70;;;2.38;;
60098;SDS011;62818;49.394;8.686;2024-02-14T21:45:57;3.05;;;2.38;;
60098;SDS011;62818;49.394;8.686;2024-02-14T21:56:03;3.30;;;2.58;;
60098;SDS011;62818;49.394;8.686;2024-02-14T22:06:04;5.47;;;2.63;;
60098;SDS011;62818;49.394;8.686;2024-02-14T22:11:05;4.13;;;2.20;;
60098;SDS011;62818;49.394;8.686;2024-02-14T22:16:08;6.30;;;2.92;;
60098;SDS011;62818;49.394;8.686;2024-02-14T22:21:10;5.57;;;2.92;;
60098;SDS011;62818;49.394;8.686;2024-02-14T22:26:13;5.45;;;3.13;;
60098;SDS011;62818;49.394;8.686;2024-02-14T22:31:18;4.43;;;2.45;;
60098;SDS011;62818;49.394;8.686;2024-02-14T22:36:21;6.07;;;2.70;;
60098;SDS011;62818;49.394;8.686;2024-02-14T22:41:22;5.78;;;2.53;;
60098;SDS011;62818;49.394;8.686;2024-02-14T22:51:23;3.30;;;2.20;;
60098;SDS011;62818;49.394;8.686;2024-02-14T23:01:24;3.80;;;2.25;;
60098;SDS011;62818;49.394;8.686;2024-02-14T23:06:25;6.00;;;2.88;;
60098;SDS011;62818;49.394;8.686;2024-02-14T23:11:27;6.55;;;2.75;;
60098;SDS011;62818;49.394;8.686;2024-02-14T23:21:28;2.57;;;1.93;;
60098;SDS011;62818;49.394;8.686;2024-02-14T23:26:29;4.15;;;2.45;;
60098;SDS011;62818;49.394;8.686;2024-02-14T23:41:33;4.07;;;2.30;;
60098;SDS011;62818;49.394;8.686;2024-02-14T23:51:36;5.43;;;2.73;;
60098;SDS011;62818;49.394;8.686;2024-02-14T23:56:37;5.25;;;2.80;;
